sensor_id;sensor_type;location;lat;lon;timestamp;pressure;altitude;pressure_sealevel;temperature;humidity
55759;BME280;41678;52.126;20.664;2023-02-16T00:04:22;101213.69;;;-0.58;99.63
55759;BME280;41678;52.126;20.664;2023-02-16T00:09:43;101201.34;;;-0.63;99.80
55759;BME280;41678;52.126;20.664;2023-02-16T00:15:28;101192.69;;;-0.64;100.00
55759;BME280;41678;52.126;20.664;2023-02-16T00:20:48;101187.97;;;-0.73;99.87
55759;BME280;41678;52.126;20.664;2023-02-16T00:31:35;101166.91;;;-0.80;99.70
55759;BME280;41678;52.126;20.664;2023-02-16T00:36:55;101161.50;;;-0.85;100.00
55759;BME280;41678;52.126;20.664;2023-02-16T00:42:19;101154.47;;;-0.88;100.00
55759;BME280;41678;52.126;20.664;2023-02-16T00:47:42;101134.38;;;-0.93;100.00
55759;BME280;41678;52.126;20.664;2023-02-16T00:53:03;101139.72;;;-0.90;99.56
55759;BME280;41678;52.126;20.664;2023-02-16T00:58:28;101128.31;;;-0.94;99.37
55759;BME280;41678;52.126;20.664;2023-02-16T01:03:49;101124.56;;;-1.01;100.00
55759;BME280;41678;52.126;20.664;2023-02-16T01:09:17;101121.81;;;-1.04;99.64
55759;BME280;41678;52.126;20.664;2023-02-16T01:14:55;101114.72;;;-1.08;99.34
55759;BME280;41678;52.126;20.664;2023-02-16T01:20:18;101111.16;;;-1.10;99.26
55759;BME280;41678;52.126;20.664;2023-02-16T01:25:39;101111.94;;;-1.12;100.00
55759;BME280;41678;52.126;20.664;2023-02-16T01:30:59;101109.97;;;-1.17;100.00
55759;BME280;41678;52.126;20.664;2023-02-16T01:36:23;101104.75;;;-1.18;99.75
55759;BME280;41678;52.126;20.664;2023-02-16T01:42:01;101111.69;;;-1.17;99.66
55759;BME280;41678;52.126;20.664;2023-02-16T01:53:01;101098.44;;;-1.23;100.00
55759;BME280;41678;52.126;20.664;2023-02-16T01:58:30;101096.69;;;-1.24;99.43
55759;BME280;41678;52.126;20.664;2023-02-16T02:03:53;101091.34;;;-1.27;99.38
55759;BME280;41678;52.126;20.664;2023-02-16T02:09:39;101080.16;;;-1.28;99.22
55759;BME280;41678;52.126;20.664;2023-02-16T02:15:01;101077.38;;;-1.31;99.80
55759;BME280;41678;52.126;20.664;2023-02-16T02:20:23;101071.84;;;-1.39;99.26
55759;BME280;41678;52.126;20.664;2023-02-16T02:31:50;101063.81;;;-1.45;99.94
55759;BME280;41678;52.126;20.664;2023-02-16T02:37:41;101065.19;;;-1.52;99.58
55759;BME280;41678;52.126;20.664;2023-02-16T02:43:37;101056.63;;;-1.51;99.18
55759;BME280;41678;52.126;20.664;2023-02-16T02:48:59;101048.72;;;-1.54;99.10
55759;BME280;41678;52.126;20.664;2023-02-16T02:54:27;101041.56;;;-1.60;99.63
55759;BME280;41678;52.126;20.664;2023-02-16T03:06:01;101024.28;;;-1.61;99.31
55759;BME280;41678;52.126;20.664;2023-02-16T03:11:23;101021.47;;;-1.65;99.12
55759;BME280;41678;52.126;20.664;2023-02-16T03:17:06;101009.81;;;-1.75;99.31
55759;BME280;41678;52.126;20.664;2023-02-16T03:22:48;101005.38;;;-1.78;99.73
55759;BME280;41678;52.126;20.664;2023-02-16T03:28:28;101007.00;;;-1.80;99.21
55759;BME280;41678;52.126;20.664;2023-02-16T03:34:07;101002.41;;;-1.86;99.26
55759;BME280;41678;52.126;20.664;2023-02-16T03:39:28;100988.53;;;-1.88;99.53
55759;BME280;41678;52.126;20.664;2023-02-16T03:44:48;100987.72;;;-1.87;99.19
55759;BME280;41678;52.126;20.664;2023-02-16T03:50:09;100987.06;;;-1.82;99.37
55759;BME280;41678;52.126;20.664;2023-02-16T03:55:28;100972.81;;;-1.92;99.27
55759;BME280;41678;52.126;20.664;2023-02-16T04:00:49;100970.22;;;-1.92;99.37
55759;BME280;41678;52.126;20.664;2023-02-16T04:06:09;100955.50;;;-1.95;99.03
55759;BME280;41678;52.126;20.664;2023-02-16T04:11:29;100955.31;;;-1.98;99.25
55759;BME280;41678;52.126;20.664;2023-02-16T04:17:07;100940.63;;;-1.99;99.25
55759;BME280;41678;52.126;20.664;2023-02-16T04:22:27;100957.13;;;-1.97;99.25
55759;BME280;41678;52.126;20.664;2023-02-16T04:27:47;100964.84;;;-1.97;99.35
55759;BME280;41678;52.126;20.664;2023-02-16T04:33:07;100963.72;;;-2.02;99.18
55759;BME280;41678;52.126;20.664;2023-02-16T04:38:27;100959.47;;;-2.02;99.37
55759;BME280;41678;52.126;20.664;2023-02-16T04:43:46;100956.06;;;-2.01;99.09
55759;BME280;41678;52.126;20.664;2023-02-16T04:49:06;100957.75;;;-2.01;99.30
55759;BME280;41678;52.126;20.664;2023-02-16T04:54:25;100947.03;;;-2.09;99.17
55759;BME280;41678;52.126;20.664;2023-02-16T04:59:46;100951.47;;;-2.06;99.50
55759;BME280;41678;52.126;20.664;2023-02-16T05:05:06;100947.03;;;-2.09;99.36
55759;BME280;41678;52.126;20.664;2023-02-16T05:10:25;100944.47;;;-2.09;99.39
55759;BME280;41678;52.126;20.664;2023-02-16T05:15:45;100948.75;;;-2.09;99.34
55759;BME280;41678;52.126;20.664;2023-02-16T05:21:05;100936.56;;;-2.12;99.07
55759;BME280;41678;52.126;20.664;2023-02-16T05:26:43;100935.84;;;-2.09;98.93
55759;BME280;41678;52.126;20.664;2023-02-16T05:32:02;100936.66;;;-2.10;98.93
55759;BME280;41678;52.126;20.664;2023-02-16T05:37:22;100934.88;;;-2.11;98.88
55759;BME280;41678;52.126;20.664;2023-02-16T05:42:42;100932.44;;;-2.08;99.02
55759;BME280;41678;52.126;20.664;2023-02-16T05:48:01;100935.03;;;-2.08;98.89
55759;BME280;41678;52.126;20.664;2023-02-16T05:53:20;100927.16;;;-2.11;99.18
55759;BME280;41678;52.126;20.664;2023-02-16T05:58:40;100935.03;;;-2.08;99.02
55759;BME280;41678;52.126;20.664;2023-02-16T06:03:59;100937.63;;;-2.08;99.34
55759;BME280;41678;52.126;20.664;2023-02-16T06:09:19;100934.22;;;-2.07;99.30
55759;BME280;41678;52.126;20.664;2023-02-16T06:14:39;100931.50;;;-2.10;99.61
55759;BME280;41678;52.126;20.664;2023-02-16T06:19:58;100932.44;;;-2.08;99.21
55759;BME280;41678;52.126;20.664;2023-02-16T06:25:17;100939.38;;;-2.07;98.87
55759;BME280;41678;52.126;20.664;2023-02-16T06:30:38;100930.31;;;-1.99;98.86
55759;BME280;41678;52.126;20.664;2023-02-16T06:36:00;100933.69;;;-2.00;99.20
55759;BME280;41678;52.126;20.664;2023-02-16T06:41:20;100931.13;;;-2.00;99.24
55759;BME280;41678;52.126;20.664;2023-02-16T06:46:58;100918.88;;;-2.04;99.19
55759;BME280;41678;52.126;20.664;2023-02-16T06:52:18;100921.69;;;-2.00;98.98
55759;BME280;41678;52.126;20.664;2023-02-16T06:57:37;100920.97;;;-1.97;98.98
55759;BME280;41678;52.126;20.664;2023-02-16T07:02:57;100916.00;;;-1.92;99.32
55759;BME280;41678;52.126;20.664;2023-02-16T07:08:17;100912.00;;;-1.87;99.56
55759;BME280;41678;52.126;20.664;2023-02-16T07:13:37;100918.47;;;-1.77;99.40
55759;BME280;41678;52.126;20.664;2023-02-16T07:18:57;100907.72;;;-1.68;99.28
55759;BME280;41678;52.126;20.664;2023-02-16T07:24:16;100915.25;;;-1.55;99.79
55759;BME280;41678;52.126;20.664;2023-02-16T07:29:35;100899.28;;;-1.46;99.47
55759;BME280;41678;52.126;20.664;2023-02-16T07:34:55;100896.34;;;-1.36;99.81
55759;BME280;41678;52.126;20.664;2023-02-16T07:40:14;100906.16;;;-1.09;99.76
55759;BME280;41678;52.126;20.664;2023-02-16T07:45:34;100910.50;;;-1.08;100.00
55759;BME280;41678;52.126;20.664;2023-02-16T07:50:54;100916.56;;;-0.89;100.00
55759;BME280;41678;52.126;20.664;2023-02-16T07:56:28;100906.19;;;-0.69;100.00
55759;BME280;41678;52.126;20.664;2023-02-16T08:01:48;100891.09;;;-0.60;100.00
55759;BME280;41678;52.126;20.664;2023-02-16T08:07:13;100892.53;;;-0.26;100.00
55759;BME280;41678;52.126;20.664;2023-02-16T08:12:32;100881.56;;;-0.20;100.00
55759;BME280;41678;52.126;20.664;2023-02-16T08:17:52;100881.44;;;-0.02;100.00
55759;BME280;41678;52.126;20.664;2023-02-16T08:23:12;100897.97;;;0.23;100.00
55759;BME280;41678;52.126;20.664;2023-02-16T08:28:32;100890.09;;;0.42;100.00
55759;BME280;41678;52.126;20.664;2023-02-16T08:33:52;100885.53;;;0.58;100.00
55759;BME280;41678;52.126;20.664;2023-02-16T08:39:14;100880.91;;;0.72;100.00
55759;BME280;41678;52.126;20.664;2023-02-16T08:44:34;100885.66;;;0.84;100.00
55759;BME280;41678;52.126;20.664;2023-02-16T08:49:54;100892.03;;;0.92;100.00
55759;BME280;41678;52.126;20.664;2023-02-16T08:55:14;100900.38;;;1.08;100.00
55759;BME280;41678;52.126;20.664;2023-02-16T09:00:35;100893.97;;;1.22;100.00
55759;BME280;41678;52.126;20.664;2023-02-16T09:06:01;100897.81;;;1.34;100.00
55759;BME280;41678;52.126;20.664;2023-02-16T09:11:22;100885.28;;;1.46;100.00
55759;BME280;41678;52.126;20.664;2023-02-16T09:16:42;100880.44;;;1.55;100.00
55759;BME280;41678;52.126;20.664;2023-02-16T09:22:06;100885.94;;;1.65;100.00
55759;BME280;41678;52.126;20.664;2023-02-16T09:27:25;100880.97;;;1.71;100.00
55759;BME280;41678;52.126;20.664;2023-02-16T09:32:46;100869.13;;;1.79;100.00
55759;BME280;41678;52.126;20.664;2023-02-16T09:38:05;100882.75;;;1.98;99.82
55759;BME280;41678;52.126;20.664;2023-02-16T09:43:41;100889.38;;;2.16;99.19
55759;BME280;41678;52.126;20.664;2023-02-16T09:49:04;100891.16;;;2.18;99.63
55759;BME280;41678;52.126;20.664;2023-02-16T09:54:33;100892.50;;;2.33;99.91
55759;BME280;41678;52.126;20.664;2023-02-16T10:00:24;100887.69;;;2.45;99.46
55759;BME280;41678;52.126;20.664;2023-02-16T10:11:29;100871.09;;;2.69;99.03
55759;BME280;41678;52.126;20.664;2023-02-16T10:23:16;100869.09;;;2.89;99.44
55759;BME280;41678;52.126;20.664;2023-02-16T10:28:49;100859.97;;;3.04;98.88
55759;BME280;41678;52.126;20.664;2023-02-16T10:34:21;100848.09;;;3.14;99.12
55759;BME280;41678;52.126;20.664;2023-02-16T10:39:52;100832.75;;;3.24;99.12
55759;BME280;41678;52.126;20.664;2023-02-16T10:51:07;100823.03;;;3.49;98.58
55759;BME280;41678;52.126;20.664;2023-02-16T10:56:49;100816.41;;;3.64;98.72
55759;BME280;41678;52.126;20.664;2023-02-16T11:02:36;100816.66;;;3.73;98.37
55759;BME280;41678;52.126;20.664;2023-02-16T11:07:58;100818.66;;;3.83;98.52
55759;BME280;41678;52.126;20.664;2023-02-16T11:13:30;100815.38;;;3.92;98.95
55759;BME280;41678;52.126;20.664;2023-02-16T11:24:30;100801.38;;;4.25;97.47
55759;BME280;41678;52.126;20.664;2023-02-16T11:29:50;100809.47;;;4.38;96.72
55759;BME280;41678;52.126;20.664;2023-02-16T11:35:12;100800.03;;;4.43;96.69
55759;BME280;41678;52.126;20.664;2023-02-16T11:40:33;100807.28;;;4.57;96.92
55759;BME280;41678;52.126;20.664;2023-02-16T11:45:58;100793.59;;;4.67;97.78
55759;BME280;41678;52.126;20.664;2023-02-16T11:51:31;100791.16;;;4.76;97.64
55759;BME280;41678;52.126;20.664;2023-02-16T11:57:04;100791.47;;;4.92;96.61
55759;BME280;41678;52.126;20.664;2023-02-16T12:14:19;100796.50;;;5.27;95.45
55759;BME280;41678;52.126;20.664;2023-02-16T12:19:44;100794.88;;;5.34;96.04
55759;BME280;41678;52.126;20.664;2023-02-16T12:36:53;100780.59;;;5.65;94.27
55759;BME280;41678;52.126;20.664;2023-02-16T12:42:51;100776.28;;;5.66;95.30
55759;BME280;41678;52.126;20.664;2023-02-16T12:53:55;100779.13;;;5.83;95.23
55759;BME280;41678;52.126;20.664;2023-02-16T12:59:22;100777.53;;;5.91;94.57
55759;BME280;41678;52.126;20.664;2023-02-16T13:04:49;100770.63;;;5.95;94.06
55759;BME280;41678;52.126;20.664;2023-02-16T13:10:26;100774.19;;;6.00;93.63
55759;BME280;41678;52.126;20.664;2023-02-16T13:33:04;100757.81;;;6.11;93.49
55759;BME280;41678;52.126;20.664;2023-02-16T13:44:24;100745.63;;;6.13;93.28
55759;BME280;41678;52.126;20.664;2023-02-16T13:49:46;100749.94;;;6.09;93.37
55759;BME280;41678;52.126;20.664;2023-02-16T13:55:29;100750.03;;;6.15;94.10
55759;BME280;41678;52.126;20.664;2023-02-16T14:00:50;100753.53;;;6.14;94.47
55759;BME280;41678;52.126;20.664;2023-02-16T14:06:31;100743.09;;;6.17;94.05
55759;BME280;41678;52.126;20.664;2023-02-16T14:33:59;100742.91;;;6.05;94.05
55759;BME280;41678;52.126;20.664;2023-02-16T14:39:21;100751.69;;;6.08;93.92
55759;BME280;41678;52.126;20.664;2023-02-16T14:51:17;100751.69;;;6.10;93.64
55759;BME280;41678;52.126;20.664;2023-02-16T14:57:03;100748.97;;;6.02;93.24
55759;BME280;41678;52.126;20.664;2023-02-16T15:02:34;100749.72;;;5.96;93.77
55759;BME280;41678;52.126;20.664;2023-02-16T15:08:01;100746.22;;;5.93;94.23
55759;BME280;41678;52.126;20.664;2023-02-16T15:13:27;100745.28;;;5.91;94.05
55759;BME280;41678;52.126;20.664;2023-02-16T15:18:49;100735.63;;;5.85;94.06
55759;BME280;41678;52.126;20.664;2023-02-16T15:24:20;100743.44;;;5.84;94.10
55759;BME280;41678;52.126;20.664;2023-02-16T15:29:40;100738.06;;;5.74;94.61
55759;BME280;41678;52.126;20.664;2023-02-16T15:35:09;100727.53;;;5.68;94.38
55759;BME280;41678;52.126;20.664;2023-02-16T15:40:29;100730.03;;;5.60;94.75
55759;BME280;41678;52.126;20.664;2023-02-16T15:45:52;100731.56;;;5.49;95.13
55759;BME280;41678;52.126;20.664;2023-02-16T15:51:14;100738.41;;;5.41;95.32
55759;BME280;41678;52.126;20.664;2023-02-16T16:02:00;100728.47;;;5.21;95.30
55759;BME280;41678;52.126;20.664;2023-02-16T16:07:26;100719.66;;;5.14;95.42
55759;BME280;41678;52.126;20.664;2023-02-16T16:12:48;100725.59;;;5.04;95.71
55759;BME280;41678;52.126;20.664;2023-02-16T16:24:03;100720.84;;;4.82;95.50
55759;BME280;41678;52.126;20.664;2023-02-16T16:34:52;100710.81;;;4.58;95.29
55759;BME280;41678;52.126;20.664;2023-02-16T16:45:46;100717.34;;;4.37;96.09
55759;BME280;41678;52.126;20.664;2023-02-16T16:56:30;100707.38;;;4.18;95.42
55759;BME280;41678;52.126;20.664;2023-02-16T17:01:50;100700.28;;;4.10;95.95
55759;BME280;41678;52.126;20.664;2023-02-16T17:07:11;100702.56;;;3.96;95.92
55759;BME280;41678;52.126;20.664;2023-02-16T17:12:31;100691.88;;;3.84;95.92
55759;BME280;41678;52.126;20.664;2023-02-16T17:17:50;100692.59;;;3.78;96.04
55759;BME280;41678;52.126;20.664;2023-02-16T17:23:12;100692.41;;;3.69;96.43
55759;BME280;41678;52.126;20.664;2023-02-16T17:28:31;100681.66;;;3.53;95.83
55759;BME280;41678;52.126;20.664;2023-02-16T17:33:55;100674.50;;;3.46;96.38
55759;BME280;41678;52.126;20.664;2023-02-16T17:39:15;100690.78;;;3.37;95.90
55759;BME280;41678;52.126;20.664;2023-02-16T17:44:35;100693.06;;;3.23;96.07
55759;BME280;41678;52.126;20.664;2023-02-16T17:49:55;100693.78;;;3.18;96.35
55759;BME280;41678;52.126;20.664;2023-02-16T17:55:14;100692.75;;;3.11;96.10
55759;BME280;41678;52.126;20.664;2023-02-16T18:00:34;100685.47;;;2.97;95.88
55759;BME280;41678;52.126;20.664;2023-02-16T18:05:54;100693.13;;;2.91;96.44
55759;BME280;41678;52.126;20.664;2023-02-16T18:11:14;100698.28;;;2.90;96.28
55759;BME280;41678;52.126;20.664;2023-02-16T18:16:33;100693.78;;;2.84;96.56
55759;BME280;41678;52.126;20.664;2023-02-16T18:21:53;100686.75;;;2.80;96.59
55759;BME280;41678;52.126;20.664;2023-02-16T18:27:13;100683.16;;;2.75;96.49
55759;BME280;41678;52.126;20.664;2023-02-16T18:32:33;100690.00;;;2.73;96.33
55759;BME280;41678;52.126;20.664;2023-02-16T18:37:53;100689.16;;;2.72;96.50
55759;BME280;41678;52.126;20.664;2023-02-16T18:43:13;100686.53;;;2.72;96.63
55759;BME280;41678;52.126;20.664;2023-02-16T18:48:32;100693.56;;;2.75;96.78
55759;BME280;41678;52.126;20.664;2023-02-16T18:53:52;100691.06;;;2.79;96.61
55759;BME280;41678;52.126;20.664;2023-02-16T18:59:12;100702.63;;;2.89;96.59
55759;BME280;41678;52.126;20.664;2023-02-16T19:04:32;100702.75;;;2.95;96.60
55759;BME280;41678;52.126;20.664;2023-02-16T19:09:52;100691.78;;;3.07;96.46
55759;BME280;41678;52.126;20.664;2023-02-16T19:15:11;100680.34;;;3.01;96.63
55759;BME280;41678;52.126;20.664;2023-02-16T19:20:30;100694.44;;;3.09;96.71
55759;BME280;41678;52.126;20.664;2023-02-16T19:25:50;100686.84;;;3.18;96.72
55759;BME280;41678;52.126;20.664;2023-02-16T19:31:19;100686.09;;;3.22;96.47
55759;BME280;41678;52.126;20.664;2023-02-16T19:36:39;100680.84;;;3.19;96.41
55759;BME280;41678;52.126;20.664;2023-02-16T19:41:59;100676.56;;;3.23;96.55
55759;BME280;41678;52.126;20.664;2023-02-16T19:47:19;100667.84;;;3.21;96.79
55759;BME280;41678;52.126;20.664;2023-02-16T20:00:10;100679.03;;;3.18;96.68
55759;BME280;41678;52.126;20.664;2023-02-16T20:05:31;100680.84;;;3.19;97.19
55759;BME280;41678;52.126;20.664;2023-02-16T20:10:51;100668.50;;;3.12;97.46
55759;BME280;41678;52.126;20.664;2023-02-16T20:16:12;100672.91;;;3.15;96.44
55759;BME280;41678;52.126;20.664;2023-02-16T20:21:32;100684.25;;;3.18;96.32
55759;BME280;41678;52.126;20.664;2023-02-16T20:33:26;100672.72;;;3.08;97.01
55759;BME280;41678;52.126;20.664;2023-02-16T20:38:47;100672.72;;;3.07;96.82
55759;BME280;41678;52.126;20.664;2023-02-16T20:44:09;100678.78;;;3.07;97.00
55759;BME280;41678;52.126;20.664;2023-02-16T20:49:29;100678.66;;;3.03;96.72
55759;BME280;41678;52.126;20.664;2023-02-16T20:54:49;100671.59;;;2.97;96.92
55759;BME280;41678;52.126;20.664;2023-02-16T21:00:13;100668.09;;;2.96;97.13
55759;BME280;41678;52.126;20.664;2023-02-16T21:05:34;100663.66;;;2.92;96.94
55759;BME280;41678;52.126;20.664;2023-02-16T21:10:53;100661.88;;;2.90;96.93
55759;BME280;41678;52.126;20.664;2023-02-16T21:16:13;100666.09;;;2.86;97.07
55759;BME280;41678;52.126;20.664;2023-02-16T21:21:33;100659.97;;;2.84;97.20
55759;BME280;41678;52.126;20.664;2023-02-16T21:26:52;100666.91;;;2.83;97.14
55759;BME280;41678;52.126;20.664;2023-02-16T21:32:12;100664.19;;;2.79;97.18
55759;BME280;41678;52.126;20.664;2023-02-16T21:37:33;100661.53;;;2.77;97.38
55759;BME280;41678;52.126;20.664;2023-02-16T21:42:53;100653.53;;;2.69;97.25
55759;BME280;41678;52.126;20.664;2023-02-16T21:48:12;100649.03;;;2.62;97.27
55759;BME280;41678;52.126;20.664;2023-02-16T21:53:51;100657.69;;;2.63;97.48
55759;BME280;41678;52.126;20.664;2023-02-16T21:59:16;100650.72;;;2.60;97.31
55759;BME280;41678;52.126;20.664;2023-02-16T22:04:35;100656.75;;;2.59;97.26
55759;BME280;41678;52.126;20.664;2023-02-16T22:09:55;100654.03;;;2.56;97.21
55759;BME280;41678;52.126;20.664;2023-02-16T22:15:15;100646.88;;;2.47;97.41
55759;BME280;41678;52.126;20.664;2023-02-16T22:20:34;100647.84;;;2.51;97.61
55759;BME280;41678;52.126;20.664;2023-02-16T22:25:54;100641.88;;;2.53;97.62
55759;BME280;41678;52.126;20.664;2023-02-16T22:31:13;100648.84;;;2.56;97.35
55759;BME280;41678;52.126;20.664;2023-02-16T22:36:35;100655.78;;;2.57;97.19
55759;BME280;41678;52.126;20.664;2023-02-16T22:41:54;100647.91;;;2.54;97.52
55759;BME280;41678;52.126;20.664;2023-02-16T22:47:14;100641.09;;;2.58;96.97
55759;BME280;41678;52.126;20.664;2023-02-16T22:52:34;100632.41;;;2.57;97.29
55759;BME280;41678;52.126;20.664;2023-02-16T22:57:55;100637.72;;;2.60;97.74
55759;BME280;41678;52.126;20.664;2023-02-16T23:03:16;100644.81;;;2.67;97.44
55759;BME280;41678;52.126;20.664;2023-02-16T23:08:35;100630.06;;;2.66;97.57
55759;BME280;41678;52.126;20.664;2023-02-16T23:13:55;100642.09;;;2.63;97.35
55759;BME280;41678;52.126;20.664;2023-02-16T23:19:19;100646.56;;;2.68;98.17
55759;BME280;41678;52.126;20.664;2023-02-16T23:24:39;100642.94;;;2.62;97.71
55759;BME280;41678;52.126;20.664;2023-02-16T23:29:59;100635.97;;;2.61;98.02
55759;BME280;41678;52.126;20.664;2023-02-16T23:35:19;100630.75;;;2.59;98.00
55759;BME280;41678;52.126;20.664;2023-02-16T23:40:39;100630.84;;;2.64;97.69
55759;BME280;41678;52.126;20.664;2023-02-16T23:45:59;100633.41;;;2.62;97.95
55759;BME280;41678;52.126;20.664;2023-02-16T23:51:20;100636.03;;;2.64;97.58
55759;BME280;41678;52.126;20.664;2023-02-16T23:56:39;100637.78;;;2.63;97.81
